.
WxDataArchive / Data Records for 2013-03-08
2013-03-07 March 2013 2013-03-09

Data Records for Friday, 08 March 2013

Time	Temp	Chill	HIndex	Humid	Dewpt	 Wind 	HiWind	WindDir	Rain 	Barom 
-----	----	-----	------	-----	-----	------	------	-------	-----	----- 
00:00	32.2	32.2	32.2	75	25.2	0	0	---	0.00	30.405 
00:05	32.1	32.1	32.1	75	25.1	0	0	---	0.00	30.405 
00:10	32.1	32.1	32.1	75	25.1	0	0	---	0.00	30.405 
00:15	31.9	31.9	31.9	75	24.9	0	0	---	0.00	30.411 
00:20	31.8	31.8	31.8	75	24.8	0	0	---	0.00	30.411 
00:25	31.6	31.6	31.6	76	24.9	0	0	---	0.00	30.411 
00:30	31.5	31.5	31.5	76	24.8	0	0	---	0.00	30.412 
00:35	31.2	31.2	31.2	76	24.5	0	0	---	0.00	30.412 
00:40	30.9	30.9	30.9	76	24.2	0	0	---	0.00	30.412 
00:45	30.6	30.6	30.6	77	24.3	0	0	---	0.00	30.415 
00:50	30.3	30.3	30.3	77	24.0	0	0	---	0.00	30.415 
00:55	30.1	30.1	30.1	78	24.1	0	0	---	0.00	30.415 
01:00	29.8	29.8	29.8	78	23.8	0	0	---	0.00	30.419 
01:05	29.7	29.7	29.7	79	24.0	0	0	---	0.00	30.419 
01:10	29.5	29.5	29.5	80	24.1	0	0	---	0.00	30.419 
01:15	29.5	29.5	29.5	80	24.1	0	0	---	0.00	30.418 
01:20	29.4	29.4	29.4	80	24.0	0	0	---	0.00	30.418 
01:25	29.1	29.1	29.1	80	23.7	0	0	---	0.00	30.418 
01:30	28.8	28.8	28.8	81	23.7	0	0	---	0.00	30.417 
01:35	28.7	28.7	28.7	81	23.6	0	0	---	0.00	30.417 
01:40	28.4	28.4	28.4	81	23.3	0	0	---	0.00	30.417 
01:45	28.1	28.1	28.1	81	23.0	0	0	---	0.00	30.428 
01:50	27.8	27.8	27.8	81	22.7	0	0	---	0.00	30.428 
01:55	27.5	27.5	27.5	82	22.7	0	0	---	0.00	30.428 
02:00	27.3	27.3	27.3	82	22.5	0	0	---	0.00	30.430 
02:05	27.2	27.2	27.2	83	22.7	0	0	---	0.00	30.430 
02:10	26.9	26.9	26.9	83	22.4	0	0	---	0.00	30.430 
02:15	26.6	26.6	26.6	83	22.1	0	0	---	0.00	30.431 
02:20	26.4	26.4	26.4	83	22.0	0	0	---	0.00	30.431 
02:25	26.3	26.3	26.3	84	22.1	0	0	---	0.00	30.431 
02:30	26.1	26.1	26.1	84	21.9	0	0	---	0.00	30.432 
02:35	26.0	26.0	26.0	84	21.8	0	0	---	0.00	30.432 
02:40	26.0	26.0	26.0	85	22.1	0	0	---	0.00	30.432 
02:45	25.8	25.8	25.8	85	21.9	0	0	---	0.00	30.429 
02:50	25.8	25.8	25.8	85	21.9	0	0	---	0.00	30.429 
02:55	25.7	25.7	25.7	85	21.8	0	0	---	0.00	30.429 
03:00	25.7	25.7	25.7	85	21.8	0	0	---	0.00	30.423 
03:05	25.6	25.6	25.6	86	22.0	0	0	---	0.00	30.423 
03:10	25.6	25.6	25.6	86	22.0	0	0	---	0.00	30.423 
03:15	25.4	25.4	25.4	86	21.8	0	0	---	0.00	30.422 
03:20	25.4	25.4	25.4	86	21.8	0	0	---	0.00	30.422 
03:25	25.4	25.4	25.4	86	21.8	0	0	---	0.00	30.422 
03:30	25.4	25.4	25.4	86	21.8	0	0	---	0.00	30.427 
03:35	25.4	25.4	25.4	86	21.8	0	0	---	0.00	30.427 
03:40	25.3	25.3	25.3	86	21.7	0	0	---	0.00	30.427 
03:45	25.1	25.1	25.1	86	21.5	0	0	---	0.00	30.431 
03:50	25.1	25.1	25.1	86	21.5	0	0	---	0.00	30.431 
03:55	25.0	25.0	25.0	86	21.4	0	0	---	0.00	30.431 
04:00	24.8	24.8	24.8	86	21.2	0	0	---	0.00	30.432 
04:05	24.8	24.8	24.8	86	21.2	0	0	---	0.00	30.432 
04:10	24.8	24.8	24.8	86	21.2	0	0	---	0.00	30.432 
04:15	24.8	24.8	24.8	85	20.9	0	0	---	0.00	30.438 
04:20	24.7	24.7	24.7	85	20.8	0	0	---	0.00	30.438 
04:25	24.5	24.5	24.5	85	20.6	0	0	---	0.00	30.438 
04:30	24.5	24.5	24.5	85	20.6	0	0	---	0.00	30.445 
04:35	24.4	24.4	24.4	84	20.3	0	0	---	0.00	30.445 
04:40	24.2	24.2	24.2	84	20.1	0	0	---	0.00	30.445 
04:45	24.1	24.1	24.1	84	20.0	0	0	---	0.00	30.453 
04:50	23.9	23.9	23.9	84	19.8	0	0	---	0.00	30.453 
04:55	23.8	23.8	23.8	84	19.7	0	0	---	0.00	30.453 
05:00	23.8	23.8	23.8	84	19.7	0	0	---	0.00	30.461 
05:05	23.6	23.6	23.6	84	19.5	0	0	---	0.00	30.461 
05:10	23.5	23.5	23.5	84	19.4	0	0	---	0.00	30.461 
05:15	23.2	23.2	23.2	84	19.1	0	0	---	0.00	30.463 
05:20	22.9	22.9	22.9	83	18.5	0	0	---	0.00	30.463 
05:25	22.4	22.4	22.4	84	18.3	0	0	---	0.00	30.463 
05:30	22.2	22.2	22.2	84	18.1	0	0	---	0.00	30.466 
05:35	21.9	21.9	21.9	84	17.8	0	0	---	0.00	30.466 
05:40	21.6	21.6	21.6	84	17.5	0	0	---	0.00	30.466 
05:45	21.3	21.3	21.3	84	17.2	0	0	---	0.00	30.469 
05:50	21.1	21.1	21.1	84	17.0	0	0	---	0.00	30.469 
05:55	21.0	21.0	21.0	84	16.9	0	0	---	0.00	30.469 
06:00	20.8	20.8	20.8	84	16.7	0	0	---	0.00	30.472 
06:05	20.5	20.5	20.5	84	16.4	0	0	---	0.00	30.472 
06:10	20.3	20.3	20.3	84	16.3	0	0	---	0.00	30.472 
06:15	20.2	20.2	20.2	85	16.4	0	0	---	0.00	30.474 
06:20	19.9	19.9	19.9	85	16.1	0	0	---	0.00	30.474 
06:25	19.7	19.7	19.7	85	15.9	0	0	---	0.00	30.474 
06:30	19.4	19.4	19.4	85	15.6	0	0	---	0.00	30.477 
06:35	19.2	19.2	19.2	85	15.4	0	0	---	0.00	30.477 
06:40	19.1	19.1	19.1	85	15.3	0	0	---	0.00	30.477 
06:45	19.1	19.1	19.1	86	15.6	0	0	---	0.00	30.486 
06:50	19.1	19.1	19.1	86	15.6	0	0	---	0.00	30.486 
06:55	18.8	18.8	18.8	86	15.3	0	0	---	0.00	30.486 
07:00	18.6	18.6	18.6	86	15.1	0	0	---	0.00	30.490 
07:05	18.6	18.6	18.6	86	15.1	0	0	---	0.00	30.490 
07:10	18.8	18.8	18.8	86	15.3	0	0	---	0.00	30.490 
07:15	18.8	18.8	18.8	87	15.6	0	0	---	0.00	30.492 
07:20	18.6	18.6	18.6	87	15.4	0	0	---	0.00	30.492 
07:25	18.6	18.6	18.6	87	15.4	0	0	---	0.00	30.492 
07:30	18.6	18.6	18.6	87	15.4	0	0	---	0.00	30.493 
07:35	18.9	18.9	18.9	87	15.7	0	0	---	0.00	30.493 
07:40	19.2	19.2	19.2	88	16.2	0	0	---	0.00	30.493 
07:45	19.7	19.7	19.7	88	16.7	0	0	---	0.00	30.492 
07:50	20.0	20.0	20.0	88	17.0	0	0	---	0.00	30.492 
07:55	20.5	20.5	20.5	88	17.5	0	0	---	0.00	30.492 
08:00	21.4	21.4	21.4	89	18.7	0	0	---	0.00	30.493 
08:05	22.2	22.2	22.2	88	19.2	0	0	---	0.00	30.493 
08:10	22.9	22.9	22.9	88	19.9	0	0	---	0.00	30.493 
08:15	23.5	23.5	23.5	88	20.5	0	0	---	0.00	30.498 
08:20	24.4	24.4	24.4	88	21.4	0	0	---	0.00	30.498 
08:25	25.3	25.3	25.3	86	21.7	0	1	315	0.00	30.498 
08:30	26.0	26.0	26.0	84	21.8	0	1	315	0.00	30.499 
08:35	26.6	26.6	26.6	83	22.1	0	1	315	0.00	30.499 
08:40	27.0	27.0	27.0	81	22.0	0	1	315	0.00	30.499 
08:45	27.6	27.6	27.6	79	22.0	0	1	315	0.00	30.500 
08:50	28.2	28.2	28.2	76	21.6	0	2	315	0.00	30.500 
08:55	28.5	28.5	28.5	74	21.3	0	1	315	0.00	30.500 
09:00	29.0	29.0	29.0	72	21.1	0	1	315	0.00	30.505 
09:05	29.1	29.1	29.1	71	20.9	0	1	315	0.00	30.505 
09:10	29.7	29.7	29.7	69	20.8	0	1	315	0.00	30.505 
09:15	30.4	30.4	30.4	65	20.1	1	4	315	0.00	30.511 
09:20	30.7	30.7	30.7	65	20.3	1	4	112	0.00	30.511 
09:25	31.0	31.0	31.0	64	20.3	2	5	112	0.00	30.511 
09:30	31.5	31.5	31.5	61	19.6	2	5	112	0.00	30.511 
09:35	31.9	31.9	31.9	61	20.0	1	4	112	0.00	30.511 
09:40	32.4	32.4	32.4	59	19.7	2	4	112	0.00	30.511 
09:45	32.8	32.8	32.8	59	20.1	0	2	112	0.00	30.511 
09:50	33.7	33.7	33.7	58	20.5	0	2	90	0.00	30.511 
09:55	34.3	34.3	34.3	56	20.3	1	3	68	0.00	30.511 
10:00	35.0	35.0	35.0	55	20.5	0	2	68	0.00	30.510 
10:05	35.8	35.8	35.8	54	20.8	0	2	68	0.00	30.510 
10:10	35.9	35.9	35.9	52	20.0	2	5	90	0.00	30.510 
10:15	35.0	35.0	35.0	52	19.2	2	4	90	0.00	30.509 
10:20	34.3	34.3	34.3	54	19.4	3	6	90	0.00	30.509 
10:25	34.1	34.1	34.1	53	18.8	2	5	90	0.00	30.509 
10:30	34.6	34.6	34.6	53	19.2	2	4	90	0.00	30.506 
10:35	34.7	34.7	34.7	54	19.8	2	4	90	0.00	30.506 
10:40	34.6	34.6	34.6	54	19.7	2	5	90	0.00	30.506 
10:45	34.7	34.7	34.7	54	19.8	2	4	90	0.00	30.505 
10:50	35.2	35.2	35.2	53	19.8	1	3	90	0.00	30.505 
10:55	35.8	35.8	35.8	52	19.9	1	4	90	0.00	30.505 
11:00	36.2	36.2	36.2	51	19.8	0	2	90	0.00	30.508 
11:05	37.0	37.0	37.0	49	19.6	1	3	90	0.00	30.508 
11:10	37.9	37.9	37.9	47	19.5	1	3	90	0.00	30.508 
11:15	37.3	37.3	37.3	47	18.9	2	4	90	0.00	30.508 
11:20	36.2	36.2	36.2	49	18.9	2	5	90	0.00	30.508 
11:25	35.9	35.9	35.9	50	19.1	2	4	90	0.00	30.508 
11:30	36.2	36.2	36.2	51	19.8	2	4	90	0.00	30.510 
11:35	36.5	36.5	36.5	49	19.2	1	4	90	0.00	30.510 
11:40	36.3	36.3	36.3	48	18.5	2	4	90	0.00	30.510 
11:45	36.5	36.5	36.5	50	19.6	1	4	90	0.00	30.510 
11:50	36.6	36.6	36.6	49	19.3	2	6	90	0.00	30.510 
11:55	36.8	36.8	36.8	49	19.5	1	5	90	0.00	30.510 
12:00	36.9	36.9	36.9	49	19.5	1	3	90	0.00	30.509 
12:05	36.9	36.9	36.9	50	20.0	1	4	90	0.00	30.509 
12:10	36.8	36.8	36.8	50	19.9	1	3	90	0.00	30.509 
12:15	36.9	36.9	36.9	50	20.0	1	4	90	0.00	30.507 
12:20	37.2	37.2	37.2	49	19.8	1	3	90	0.00	30.507 
12:25	37.5	37.5	37.5	49	20.1	1	4	90	0.00	30.507 
12:30	37.9	37.9	37.9	47	19.5	1	4	90	0.00	30.504 
12:35	38.0	38.0	38.0	48	20.1	1	3	90	0.00	30.504 
12:40	37.5	37.5	37.5	48	19.6	2	5	90	0.00	30.504 
12:45	37.3	37.3	37.3	48	19.4	1	3	90	0.00	30.498 
12:50	37.6	37.6	37.6	47	19.2	0	3	90	0.00	30.498 
12:55	37.6	37.6	37.6	45	18.2	1	4	90	0.00	30.498 
13:00	37.3	37.3	37.3	45	17.9	1	3	90	0.00	30.493 
13:05	37.0	37.0	37.0	45	17.7	2	4	90	0.00	30.493 
13:10	36.5	36.5	36.5	46	17.7	2	6	90	0.00	30.493 
13:15	36.2	36.2	36.2	48	18.4	2	6	90	0.00	30.498 
13:20	35.9	35.9	35.9	49	18.6	2	5	90	0.00	30.498 
13:25	36.2	36.2	36.2	50	19.4	2	5	90	0.00	30.498 
13:30	36.2	36.2	36.2	50	19.4	2	6	90	0.00	30.485 
13:35	36.2	36.2	36.2	50	19.4	2	5	90	0.00	30.485 
13:40	36.5	36.5	36.5	52	20.6	1	4	90	0.00	30.485 
13:45	36.8	36.8	36.8	50	19.9	1	4	90	0.00	30.485 
13:50	36.9	36.9	36.9	48	19.1	1	5	90	0.00	30.485 
13:55	37.0	37.0	37.0	50	20.1	1	3	90	0.00	30.485 
14:00	37.3	37.3	37.3	49	19.9	0	2	90	0.00	30.480 
14:05	37.3	37.3	37.3	48	19.4	1	4	90	0.00	30.480 
14:10	37.5	37.5	37.5	47	19.1	2	7	90	0.00	30.480 
14:15	37.0	37.0	37.0	46	18.2	2	6	90	0.00	30.475 
14:20	37.0	37.0	37.0	47	18.7	1	4	90	0.00	30.475 
14:25	36.9	36.9	36.9	46	18.1	1	4	90	0.00	30.475 
14:30	37.2	37.2	37.2	46	18.3	0	3	90	0.00	30.475 
14:35	37.5	37.5	37.5	48	19.6	1	4	90	0.00	30.475 
14:40	37.3	37.3	37.3	46	18.4	1	3	90	0.00	30.475 
14:45	37.5	37.5	37.5	46	18.6	0	3	90	0.00	30.472 
14:50	37.6	37.6	37.6	49	20.2	1	5	90	0.00	30.472 
14:55	37.8	37.8	37.8	50	20.8	0	2	90	0.00	30.472 
15:00	37.6	37.6	37.6	49	20.2	1	2	90	0.00	30.466 
15:05	37.6	37.6	37.6	50	20.7	0	2	90	0.00	30.466 
15:10	37.9	37.9	37.9	48	20.0	1	2	90	0.00	30.466 
15:15	38.0	38.0	38.0	47	19.6	0	2	90	0.00	30.468 
15:20	38.0	38.0	38.0	49	20.6	0	3	90	0.00	30.468 
15:25	38.2	38.2	38.2	49	20.7	0	2	90	0.00	30.468 
15:30	38.0	38.0	38.0	50	21.0	1	3	90	0.00	30.466 
15:35	37.9	37.9	37.9	50	20.9	1	3	90	0.00	30.466 
15:40	37.8	37.8	37.8	50	20.8	1	4	90	0.00	30.466 
15:45	37.6	37.6	37.6	50	20.7	0	2	90	0.00	30.462 
15:50	37.6	37.6	37.6	51	21.1	0	2	90	0.00	30.462 
15:55	37.3	37.3	37.3	51	20.9	2	4	90	0.00	30.462 
16:00	36.9	36.9	36.9	51	20.5	1	5	90	0.00	30.459 
16:05	36.9	36.9	36.9	52	20.9	1	4	90	0.00	30.459 
16:10	36.8	36.8	36.8	52	20.8	1	5	90	0.00	30.459 
16:15	36.9	36.9	36.9	52	20.9	1	3	90	0.00	30.457 
16:20	36.9	36.9	36.9	52	20.9	1	3	90	0.00	30.457 
16:25	36.9	36.9	36.9	53	21.4	1	3	90	0.00	30.457 
16:30	36.9	36.9	36.9	52	20.9	0	2	90	0.00	30.453 
16:35	36.9	36.9	36.9	52	20.9	1	5	90	0.00	30.453 
16:40	36.9	36.9	36.9	52	20.9	0	2	90	0.00	30.453 
16:45	36.9	36.9	36.9	52	20.9	0	1	90	0.00	30.455 
16:50	36.9	36.9	36.9	52	20.9	1	2	90	0.00	30.455 
16:55	36.8	36.8	36.8	51	20.4	0	2	90	0.00	30.455 
17:00	36.8	36.8	36.8	51	20.4	0	2	90	0.00	30.450 
17:05	36.6	36.6	36.6	51	20.2	1	3	90	0.00	30.450 
17:10	36.6	36.6	36.6	52	20.7	0	2	90	0.00	30.450 
17:15	36.6	36.6	36.6	52	20.7	1	3	90	0.00	30.454 
17:20	36.5	36.5	36.5	53	21.0	1	3	90	0.00	30.454 
17:25	36.5	36.5	36.5	53	21.0	1	3	90	0.00	30.454 
17:30	36.3	36.3	36.3	53	20.8	0	2	90	0.00	30.453 
17:35	36.2	36.2	36.2	54	21.2	0	2	90	0.00	30.453 
17:40	36.2	36.2	36.2	55	21.6	1	3	90	0.00	30.453 
17:45	36.0	36.0	36.0	56	21.8	1	3	90	0.00	30.446 
17:50	35.9	35.9	35.9	56	21.8	0	2	90	0.00	30.446 
17:55	35.8	35.8	35.8	56	21.7	0	2	90	0.00	30.446 
18:00	35.6	35.6	35.6	57	21.9	0	1	90	0.00	30.453 
18:05	35.5	35.5	35.5	58	22.2	0	1	90	0.00	30.453 
18:10	35.3	35.3	35.3	58	22.0	0	1	90	0.00	30.453 
18:15	35.2	35.2	35.2	58	21.9	0	1	90	0.00	30.445 
18:20	34.9	34.9	34.9	58	21.6	0	1	90	0.00	30.445 
18:25	34.7	34.7	34.7	58	21.5	0	0	---	0.00	30.445 
18:30	34.4	34.4	34.4	59	21.6	0	0	---	0.00	30.446 
18:35	34.3	34.3	34.3	59	21.5	0	0	---	0.00	30.446 
18:40	34.0	34.0	34.0	60	21.6	0	0	---	0.00	30.446 
18:45	33.7	33.7	33.7	60	21.3	0	0	---	0.00	30.445 
18:50	33.5	33.5	33.5	61	21.5	0	0	---	0.00	30.445 
18:55	33.1	33.1	33.1	62	21.5	0	0	---	0.00	30.445 
19:00	32.8	32.8	32.8	62	21.2	0	0	---	0.00	30.448 
19:05	32.4	32.4	32.4	62	20.9	0	0	---	0.00	30.448 
19:10	32.1	32.1	32.1	64	21.3	0	0	---	0.00	30.448 
19:15	31.8	31.8	31.8	65	21.4	0	0	---	0.00	30.446 
19:20	31.5	31.5	31.5	65	21.1	0	0	---	0.00	30.446 
19:25	31.2	31.2	31.2	66	21.2	0	0	---	0.00	30.446 
19:30	30.9	30.9	30.9	66	20.9	0	0	---	0.00	30.448 
19:35	30.6	30.6	30.6	68	21.3	0	0	---	0.00	30.448 
19:40	30.3	30.3	30.3	69	21.4	0	0	---	0.00	30.448 
19:45	30.0	30.0	30.0	69	21.1	0	0	---	0.00	30.450 
19:50	29.8	29.8	29.8	70	21.2	0	0	---	0.00	30.450 
19:55	29.5	29.5	29.5	70	20.9	0	0	---	0.00	30.450 
20:00	29.3	29.3	29.3	71	21.1	0	0	---	0.00	30.454 
20:05	29.0	29.0	29.0	71	20.8	0	0	---	0.00	30.454 
20:10	28.8	28.8	28.8	73	21.3	0	0	---	0.00	30.454 
20:15	28.7	28.7	28.7	73	21.2	0	0	---	0.00	30.450 
20:20	28.4	28.4	28.4	74	21.2	0	0	---	0.00	30.450 
20:25	28.2	28.2	28.2	74	21.0	0	0	---	0.00	30.450 
20:30	28.2	28.2	28.2	75	21.3	0	0	---	0.00	30.455 
20:35	28.2	28.2	28.2	76	21.6	0	0	---	0.00	30.455 
20:40	28.2	28.2	28.2	77	21.9	0	0	---	0.00	30.455 
20:45	28.1	28.1	28.1	77	21.8	0	0	---	0.00	30.455 
20:50	27.8	27.8	27.8	77	21.5	0	0	---	0.00	30.455 
20:55	27.5	27.5	27.5	78	21.6	0	0	---	0.00	30.455 
21:00	27.2	27.2	27.2	78	21.3	0	0	---	0.00	30.447 
21:05	27.0	27.0	27.0	78	21.1	0	0	---	0.00	30.447 
21:10	26.7	26.7	26.7	78	20.8	0	0	---	0.00	30.447 
21:15	26.6	26.6	26.6	79	21.0	0	0	---	0.00	30.437 
21:20	26.6	26.6	26.6	80	21.3	0	0	---	0.00	30.437 
21:25	26.6	26.6	26.6	80	21.3	0	0	---	0.00	30.437 
21:30	26.7	26.7	26.7	81	21.7	0	0	---	0.00	30.449 
21:35	26.9	26.9	26.9	81	21.9	0	0	---	0.00	30.449 
21:40	26.7	26.7	26.7	81	21.7	0	0	---	0.00	30.449 
21:45	26.4	26.4	26.4	81	21.4	0	0	---	0.00	30.449 
21:50	26.3	26.3	26.3	81	21.3	0	0	---	0.00	30.449 
21:55	26.1	26.1	26.1	81	21.1	0	0	---	0.00	30.449 
22:00	26.0	26.0	26.0	81	21.0	0	0	---	0.00	30.453 
22:05	25.7	25.7	25.7	81	20.7	0	0	---	0.00	30.453 
22:10	25.6	25.6	25.6	82	20.9	0	0	---	0.00	30.453 
22:15	25.4	25.4	25.4	83	21.0	0	0	---	0.00	30.438 
22:20	25.4	25.4	25.4	83	21.0	0	0	---	0.00	30.438 
22:25	25.4	25.4	25.4	83	21.0	0	0	---	0.00	30.438 
22:30	25.3	25.3	25.3	83	20.9	0	0	---	0.00	30.432 
22:35	25.1	25.1	25.1	83	20.7	0	0	---	0.00	30.432 
22:40	25.0	25.0	25.0	83	20.6	0	0	---	0.00	30.432 
22:45	25.0	25.0	25.0	84	20.9	0	0	---	0.00	30.424 
22:50	24.8	24.8	24.8	84	20.7	0	0	---	0.00	30.424 
22:55	24.8	24.8	24.8	84	20.7	0	0	---	0.00	30.424 
23:00	24.5	24.5	24.5	84	20.4	0	0	---	0.00	30.423 
23:05	24.4	24.4	24.4	84	20.3	0	0	---	0.00	30.423 
23:10	24.4	24.4	24.4	85	20.6	0	0	---	0.00	30.423 
23:15	24.2	24.2	24.2	85	20.4	0	0	---	0.00	30.422 
23:20	24.1	24.1	24.1	85	20.3	0	0	---	0.00	30.422 
23:25	24.1	24.1	24.1	85	20.3	0	0	---	0.00	30.422 
23:30	24.1	24.1	24.1	85	20.3	0	0	---	0.00	30.423 
23:35	24.1	24.1	24.1	86	20.5	0	0	---	0.00	30.423 
23:40	24.1	24.1	24.1	86	20.5	0	0	---	0.00	30.423 
23:45	23.9	23.9	23.9	86	20.3	0	0	---	0.00	30.422 
23:50	23.8	23.8	23.8	86	20.2	0	0	---	0.00	30.422 
23:55	23.6	23.6	23.6	86	20.0	0	0	---	0.00	30.422 

CoCoRaHS
IN-AL-39
A2 Web Hosting
Creative Commons License
GoDaddy
search engine by freefind advanced

loaded 2018-11-15 19:03:55 • last modified 2010-11-18 10:43:29
Privacy PolicyDisclaimer
• wx.awcolley.com is powered by PmWiki v.2002016 •
• all content (unless otherwise noted) © 2018 A W Colley